Time;durP1;ratioP1;P1;durP2;ratioP2;P2;SDS_P1;SDS_P2;PMS_P1;PMS_P2;Temp;Humidity;BMP_temperature;BMP_pressure;BME280_temperature;BME280_humidity;BME280_pressure;Samples;Min_cycle;Max_cycle;Signal;HPM_P1;HPM_P2
2021/01/03 00:00:29;;;;;;;;;;;14.70;83.10;;;;;;1061791;27;19907;-76
2021/01/03 00:01:00;;;;;;;;;;;14.70;83.10;;;;;;1062505;27;19903;-76
2021/01/03 00:01:31;;;;;;;;;;;14.70;83.00;;;;;;1062187;27;20363;-75
2021/01/03 00:02:03;;;;;;;;;;;14.70;82.90;;;;;;1063093;27;19903;-75
2021/01/03 00:02:34;;;;;;;;;;;14.70;82.90;;;;;;1066688;27;19942;-75
2021/01/03 00:03:06;;;;;;;;;;;14.70;82.90;;;;;;1060135;27;19922;-76
2021/01/03 00:03:37;;;;;;;;;;;14.70;82.90;;;;;;1061657;27;19913;-76
2021/01/03 00:04:08;;;;;;;;;;;14.70;83.10;;;;;;1058108;28;19973;-75
2021/01/03 00:04:40;;;;;;;;;;;14.70;83.10;;;;;;1060562;27;21675;-75
2021/01/03 00:05:11;;;;;;;;;;;14.70;83.00;;;;;;1063368;27;19947;-75
2021/01/03 00:05:42;;;;;;;;;;;14.70;82.70;;;;;;1065987;27;20308;-75
2021/01/03 00:06:14;;;;;;;;;;;14.70;82.70;;;;;;1066478;27;20380;-76
2021/01/03 00:06:45;;;;;;;;;;;14.70;82.60;;;;;;1059606;27;19915;-76
2021/01/03 00:07:16;;;;;;;;;;;14.70;82.20;;;;;;1059958;27;20349;-76
2021/01/03 00:07:48;;;;;;;;;;;14.70;82.90;;;;;;1061484;27;19965;-75
2021/01/03 00:08:19;;;;;;;;;;;14.70;82.10;;;;;;1060519;27;19915;-75
2021/01/03 00:08:50;;;;;;;;;;;14.70;82.60;;;;;;1064458;27;20251;-75
2021/01/03 00:09:22;;;;;;;;;;;14.70;82.70;;;;;;1064244;27;19915;-76
2021/01/03 00:09:53;;;;;;;;;;;14.70;82.80;;;;;;1066515;27;19903;-75
2021/01/03 00:10:24;;;;;;;;;;;14.70;82.70;;;;;;1066824;27;20005;-76
2021/01/03 00:10:55;;;;;;;;;;;14.70;82.80;;;;;;1062196;27;19919;-76
2021/01/03 00:11:26;;;;;;;;;;;14.70;82.80;;;;;;1060864;27;19940;-75
2021/01/03 00:11:57;;;;;;;;;;;14.80;82.70;;;;;;1058470;27;19908;-76
2021/01/03 00:12:28;;;;;;;;;;;14.70;82.70;;;;;;1060121;27;19903;-75
2021/01/03 00:12:59;;;;;;;;;;;14.80;82.60;;;;;;1064971;27;19903;-75
2021/01/03 00:13:30;;;;;;;;;;;14.80;82.70;;;;;;1065266;27;21530;-75
2021/01/03 00:14:02;;;;;;;;;;;14.80;82.60;;;;;;1065049;27;20335;-76
2021/01/03 00:14:33;;;;;;;;;;;14.80;82.60;;;;;;1061119;27;20404;-75
2021/01/03 00:15:05;;;;;;;;;;;14.80;82.60;;;;;;1056809;28;20226;-75
2021/01/03 00:15:36;;;;;;;;;;;14.80;82.60;;;;;;1060232;27;19939;-76
2021/01/03 00:16:07;;;;;;;;;;;14.80;82.60;;;;;;1055546;28;19911;-76
2021/01/03 00:16:38;;;;;;;;;;;14.80;82.60;;;;;;1054217;28;19904;-76
2021/01/03 00:17:10;;;;;;;;;;;14.80;82.50;;;;;;1057932;28;19904;-76
2021/01/03 00:17:41;;;;;;;;;;;14.90;82.50;;;;;;1056369;28;19904;-75
2021/01/03 00:18:12;;;;;;;;;;;14.80;82.40;;;;;;1058008;28;19941;-75
2021/01/03 00:18:43;;;;;;;;;;;14.80;82.40;;;;;;1058265;28;19914;-75
2021/01/03 00:19:14;;;;;;;;;;;14.80;82.40;;;;;;1058066;28;19903;-76
2021/01/03 00:19:45;;;;;;;;;;;14.90;82.40;;;;;;1058313;27;20330;-76
2021/01/03 00:20:21;;;;;;;;;;;14.90;82.40;;;;;;1062307;27;19935;-76
2021/01/03 00:20:52;;;;;;;;;;;14.90;82.40;;;;;;1064968;27;20320;-75
2021/01/03 00:21:23;;;;;;;;;;;14.90;82.40;;;;;;1062590;27;20290;-75
2021/01/03 00:21:54;;;;;;;;;;;14.90;82.40;;;;;;1062683;27;20362;-75
2021/01/03 00:22:25;;;;;;;;;;;14.90;82.40;;;;;;1058632;27;20042;-76
2021/01/03 00:22:57;;;;;;;;;;;14.90;82.50;;;;;;1062489;27;19903;-76
2021/01/03 00:23:28;;;;;;;;;;;14.90;82.60;;;;;;1058000;28;19904;-75
2021/01/03 00:23:59;;;;;;;;;;;14.90;82.50;;;;;;1058533;27;20254;-76
2021/01/03 00:24:30;;;;;;;;;;;14.90;82.40;;;;;;1062366;27;19904;-75
2021/01/03 00:25:01;;;;;;;;;;;14.90;82.40;;;;;;1062671;27;19912;-75
2021/01/03 00:25:33;;;;;;;;;;;14.90;82.50;;;;;;1066684;27;19970;-75
2021/01/03 00:26:04;;;;;;;;;;;14.90;82.60;;;;;;1062189;27;20003;-75
2021/01/03 00:26:35;;;;;;;;;;;14.90;82.50;;;;;;1062178;27;19913;-75
2021/01/03 00:27:06;;;;;;;;;;;14.90;82.50;;;;;;1061922;27;19904;-75
2021/01/03 00:27:37;;;;;;;;;;;14.90;82.70;;;;;;1062404;27;19904;-75
2021/01/03 00:28:08;;;;;;;;;;;14.90;82.60;;;;;;1062252;27;20004;-75
2021/01/03 00:28:39;;;;;;;;;;;14.90;82.50;;;;;;1058350;27;19915;-75
2021/01/03 00:29:11;;;;;;;;;;;14.90;82.40;;;;;;1057965;28;20317;-75
2021/01/03 00:29:42;;;;;;;;;;;14.90;82.40;;;;;;1053298;28;19911;-75
2021/01/03 00:30:13;;;;;;;;;;;14.90;82.20;;;;;;1053989;28;20299;-75
2021/01/03 00:30:44;;;;;;;;;;;14.90;82.20;;;;;;1056352;28;19908;-75
2021/01/03 00:31:15;;;;;;;;;;;14.90;82.10;;;;;;1054182;28;20337;-75
2021/01/03 00:31:48;;;;;;;;;;;14.90;82.10;;;;;;1057989;28;19915;-75
2021/01/03 00:32:19;;;;;;;;;;;14.90;82.10;;;;;;1053774;28;19904;-75
2021/01/03 00:32:50;;;;;;;;;;;14.80;82.00;;;;;;1056846;27;19910;-75
2021/01/03 00:33:21;;;;;;;;;;;14.80;82.00;;;;;;1062045;27;20002;-75
2021/01/03 00:33:52;;;;;;;;;;;14.80;82.00;;;;;;1062721;27;19954;-75
2021/01/03 00:34:23;;;;;;;;;;;14.80;82.00;;;;;;1066858;27;19990;-75
2021/01/03 00:34:54;;;;;;;;;;;14.90;82.10;;;;;;1066915;27;19915;-75
2021/01/03 00:35:32;;;;;;;;;;;14.90;82.10;;;;;;1066915;27;20342;-75
2021/01/03 00:36:05;;;;;;;;;;;14.90;82.10;;;;;;1066411;27;19967;-75
2021/01/03 00:36:36;;;;;;;;;;;14.80;82.00;;;;;;1065901;27;19910;-75
2021/01/03 00:37:07;;;;;;;;;;;14.80;82.00;;;;;;1066911;27;19903;-75
2021/01/03 00:37:38;;;;;;;;;;;14.80;82.10;;;;;;1066788;27;19903;-75
2021/01/03 00:38:10;;;;;;;;;;;14.80;82.00;;;;;;1066728;27;19968;-76
2021/01/03 00:38:41;;;;;;;;;;;14.80;82.00;;;;;;1061580;27;20276;-76
2021/01/03 00:39:12;;;;;;;;;;;14.80;82.00;;;;;;1062167;27;19907;-75
2021/01/03 00:39:43;;;;;;;;;;;14.80;81.90;;;;;;1061513;27;19903;-75
2021/01/03 00:40:16;;;;;;;;;;;14.80;81.90;;;;;;1059947;27;19911;-75
2021/01/03 00:40:47;;;;;;;;;;;14.80;81.90;;;;;;1067421;27;19907;-75
2021/01/03 00:41:18;;;;;;;;;;;14.80;81.90;;;;;;1062028;27;19914;-75
2021/01/03 00:41:50;;;;;;;;;;;14.80;81.80;;;;;;1062183;27;19910;-75
2021/01/03 00:42:21;;;;;;;;;;;14.80;81.80;;;;;;1061951;27;19945;-75
2021/01/03 00:42:52;;;;;;;;;;;14.80;81.80;;;;;;1062667;27;20287;-75
2021/01/03 00:43:25;;;;;;;;;;;14.80;81.80;;;;;;1066719;27;20343;-75
2021/01/03 00:43:56;;;;;;;;;;;14.80;81.80;;;;;;1064707;27;19899;-75
2021/01/03 00:44:27;;;;;;;;;;;14.80;81.80;;;;;;1061258;27;20057;-75
2021/01/03 00:44:58;;;;;;;;;;;14.80;81.80;;;;;;1062043;27;20324;-75
2021/01/03 00:45:30;;;;;;;;;;;14.80;81.80;;;;;;1058398;27;20343;-75
2021/01/03 00:46:01;;;;;;;;;;;14.80;81.70;;;;;;1054721;28;19961;-75
2021/01/03 00:46:32;;;;;;;;;;;14.80;81.70;;;;;;1061985;27;19910;-75
2021/01/03 00:47:03;;;;;;;;;;;14.80;81.60;;;;;;1057852;28;19910;-75
2021/01/03 00:47:34;;;;;;;;;;;14.80;81.60;;;;;;1058322;27;19914;-74
2021/01/03 00:48:06;;;;;;;;;;;14.80;81.60;;;;;;1057460;28;19948;-75
2021/01/03 00:48:37;;;;;;;;;;;14.80;81.50;;;;;;1054002;28;19904;-75
2021/01/03 00:49:08;;;;;;;;;;;14.80;81.50;;;;;;1053702;28;19990;-75
2021/01/03 00:49:39;;;;;;;;;;;14.80;81.50;;;;;;1054114;28;19915;-75
2021/01/03 00:50:11;;;;;;;;;;;14.80;81.50;;;;;;1057067;28;19910;-75
2021/01/03 00:50:42;;;;;;;;;;;14.80;81.60;;;;;;1059128;27;20358;-75
2021/01/03 00:51:13;;;;;;;;;;;14.80;81.60;;;;;;1062299;27;19907;-75
2021/01/03 00:51:44;;;;;;;;;;;14.80;81.50;;;;;;1066791;27;19903;-75
2021/01/03 00:52:15;;;;;;;;;;;14.80;81.50;;;;;;1062188;27;19943;-75
2021/01/03 00:52:46;;;;;;;;;;;14.80;81.50;;;;;;1061565;27;19911;-75
2021/01/03 00:53:17;;;;;;;;;;;14.80;81.50;;;;;;1060094;27;20272;-75
2021/01/03 00:53:48;;;;;;;;;;;14.80;81.50;;;;;;1055429;28;19908;-75
2021/01/03 00:54:19;;;;;;;;;;;14.80;81.50;;;;;;1057953;28;19912;-75
2021/01/03 00:54:50;;;;;;;;;;;14.80;81.50;;;;;;1057987;28;19931;-75
2021/01/03 00:55:21;;;;;;;;;;;14.80;81.50;;;;;;1060933;27;20051;-75
2021/01/03 00:55:52;;;;;;;;;;;14.70;81.50;;;;;;1062157;27;19911;-75
2021/01/03 00:56:24;;;;;;;;;;;14.70;81.50;;;;;;1061983;27;20001;-75
2021/01/03 00:56:55;;;;;;;;;;;14.70;81.50;;;;;;1058820;27;20023;-75
2021/01/03 00:57:26;;;;;;;;;;;14.70;81.50;;;;;;1062776;27;19933;-74
2021/01/03 00:57:57;;;;;;;;;;;14.70;81.50;;;;;;1064766;27;19908;-75
2021/01/03 00:58:28;;;;;;;;;;;14.70;81.50;;;;;;1066759;27;20316;-75
2021/01/03 00:58:59;;;;;;;;;;;14.70;81.50;;;;;;1062297;27;19904;-74
2021/01/03 00:59:31;;;;;;;;;;;14.70;81.60;;;;;;1062133;27;19903;-75
2021/01/03 01:00:05;;;;;;;;;;;14.70;81.80;;;;;;1057942;28;19904;-74
2021/01/03 01:00:36;;;;;;;;;;;14.70;81.70;;;;;;1057535;28;20769;-75
2021/01/03 01:01:07;;;;;;;;;;;14.70;81.70;;;;;;1058780;27;19904;-74
2021/01/03 01:01:38;;;;;;;;;;;14.70;81.80;;;;;;1062974;27;19910;-76
2021/01/03 01:02:09;;;;;;;;;;;14.70;81.80;;;;;;1066640;27;20233;-75
2021/01/03 01:02:40;;;;;;;;;;;14.70;81.70;;;;;;1063892;27;19907;-75
2021/01/03 01:03:11;;;;;;;;;;;14.70;81.80;;;;;;1063537;27;20328;-75
2021/01/03 01:03:42;;;;;;;;;;;14.70;81.80;;;;;;1062461;27;19994;-75
2021/01/03 01:04:13;;;;;;;;;;;14.70;81.90;;;;;;1062574;27;19905;-75
2021/01/03 01:04:44;;;;;;;;;;;14.60;81.80;;;;;;1062857;27;19953;-75
2021/01/03 01:05:16;;;;;;;;;;;14.70;81.90;;;;;;1062649;27;19900;-75
2021/01/03 01:05:47;;;;;;;;;;;14.60;81.90;;;;;;1062653;27;19899;-74
2021/01/03 01:06:18;;;;;;;;;;;14.70;81.90;;;;;;1057999;28;19899;-74
2021/01/03 01:06:49;;;;;;;;;;;14.70;82.00;;;;;;1058023;28;20222;-75
2021/01/03 01:07:20;;;;;;;;;;;14.70;81.90;;;;;;1060861;27;19934;-74
2021/01/03 01:07:52;;;;;;;;;;;14.70;81.90;;;;;;1062545;27;19911;-74
2021/01/03 01:08:23;;;;;;;;;;;14.60;81.90;;;;;;1066743;27;19899;-75
2021/01/03 01:08:54;;;;;;;;;;;14.70;82.00;;;;;;1066742;27;19899;-74
2021/01/03 01:09:25;;;;;;;;;;;14.70;82.00;;;;;;1066846;27;19963;-74
2021/01/03 01:09:57;;;;;;;;;;;14.60;81.90;;;;;;1062111;27;19900;-74
2021/01/03 01:10:28;;;;;;;;;;;14.60;81.80;;;;;;1062099;27;20336;-74
2021/01/03 01:10:59;;;;;;;;;;;14.60;81.90;;;;;;1058052;28;19906;-74
2021/01/03 01:11:30;;;;;;;;;;;14.60;81.90;;;;;;1058642;27;19900;-74
2021/01/03 01:12:02;;;;;;;;;;;14.60;81.90;;;;;;1057873;28;19991;-74
2021/01/03 01:12:34;;;;;;;;;;;14.60;81.60;;;;;;1054185;28;19908;-74
2021/01/03 01:13:05;;;;;;;;;;;14.60;81.70;;;;;;1057438;28;20310;-75
2021/01/03 01:13:39;;;;;;;;;;;14.60;81.60;;;;;;1054218;28;19903;-75
2021/01/03 01:14:10;;;;;;;;;;;14.50;81.50;;;;;;1058840;28;19915;-75
2021/01/03 01:14:41;;;;;;;;;;;14.60;81.70;;;;;;1062239;27;19953;-75
2021/01/03 01:15:17;;;;;;;;;;;14.50;81.40;;;;;;1058488;27;19985;-75
2021/01/03 01:15:48;;;;;;;;;;;14.50;81.40;;;;;;1062235;27;20003;-75
2021/01/03 01:16:19;;;;;;;;;;;14.50;81.30;;;;;;1062182;27;19910;-75
2021/01/03 01:16:50;;;;;;;;;;;14.50;81.20;;;;;;1057745;28;19926;-75
2021/01/03 01:17:21;;;;;;;;;;;14.40;81.20;;;;;;1057962;28;20506;-75
2021/01/03 01:17:54;;;;;;;;;;;14.50;81.30;;;;;;1062165;27;19977;-75
2021/01/03 01:18:25;;;;;;;;;;;14.50;81.30;;;;;;1057984;27;19900;-75
2021/01/03 01:18:56;;;;;;;;;;;14.50;81.50;;;;;;1062200;27;19903;-74
2021/01/03 01:19:27;;;;;;;;;;;14.50;81.10;;;;;;1062181;27;19903;-75
2021/01/03 01:19:58;;;;;;;;;;;14.40;81.10;;;;;;1062522;27;20391;-75
2021/01/03 01:20:30;;;;;;;;;;;14.40;81.10;;;;;;1066592;27;19910;-75
2021/01/03 01:21:01;;;;;;;;;;;14.40;81.20;;;;;;1057723;28;19900;-74
2021/01/03 01:21:32;;;;;;;;;;;14.40;81.30;;;;;;1057886;28;19994;-75
2021/01/03 01:22:03;;;;;;;;;;;14.40;81.40;;;;;;1057913;28;20323;-75
2021/01/03 01:22:34;;;;;;;;;;;14.40;81.50;;;;;;1058085;28;19951;-75
2021/01/03 01:23:05;;;;;;;;;;;14.40;81.20;;;;;;1062216;27;19904;-75
2021/01/03 01:23:36;;;;;;;;;;;14.40;81.30;;;;;;1062003;27;19918;-75
2021/01/03 01:24:08;;;;;;;;;;;14.40;81.20;;;;;;1057647;28;19903;-75
2021/01/03 01:24:39;;;;;;;;;;;14.40;81.40;;;;;;1055413;28;20324;-76
2021/01/03 01:25:11;;;;;;;;;;;14.40;81.60;;;;;;1057034;28;19918;-75
2021/01/03 01:25:42;;;;;;;;;;;14.40;81.50;;;;;;1055065;28;19907;-75
2021/01/03 01:26:13;;;;;;;;;;;14.40;81.50;;;;;;1058040;28;20321;-75
2021/01/03 01:26:44;;;;;;;;;;;14.40;81.30;;;;;;1053228;28;19914;-75
2021/01/03 01:27:15;;;;;;;;;;;14.40;81.40;;;;;;1054727;27;19915;-75
2021/01/03 01:27:46;;;;;;;;;;;14.40;81.30;;;;;;1062060;27;20401;-75
2021/01/03 01:28:17;;;;;;;;;;;14.40;81.30;;;;;;1062453;27;19968;-75
2021/01/03 01:28:48;;;;;;;;;;;14.40;81.50;;;;;;1066625;27;19971;-75
2021/01/03 01:29:19;;;;;;;;;;;14.40;81.60;;;;;;1061907;27;19903;-75
2021/01/03 01:29:50;;;;;;;;;;;14.40;81.50;;;;;;1062113;27;20295;-75
2021/01/03 01:30:22;;;;;;;;;;;14.40;81.40;;;;;;1062104;27;19910;-75
2021/01/03 01:30:53;;;;;;;;;;;14.40;81.30;;;;;;1062613;27;19914;-75
2021/01/03 01:31:25;;;;;;;;;;;14.30;81.30;;;;;;1066691;27;19959;-75
2021/01/03 01:31:56;;;;;;;;;;;14.30;81.30;;;;;;1061887;27;20329;-75
2021/01/03 01:32:27;;;;;;;;;;;14.30;81.50;;;;;;1061847;27;20279;-75
2021/01/03 01:32:58;;;;;;;;;;;14.40;81.60;;;;;;1062069;27;19911;-75
2021/01/03 01:33:29;;;;;;;;;;;14.40;81.70;;;;;;1062190;27;19904;-75
2021/01/03 01:34:00;;;;;;;;;;;14.40;81.60;;;;;;1066657;27;19914;-75
2021/01/03 01:34:31;;;;;;;;;;;14.40;81.70;;;;;;1066100;27;19950;-75
2021/01/03 01:35:03;;;;;;;;;;;14.40;81.70;;;;;;1064199;27;19903;-75
2021/01/03 01:35:34;;;;;;;;;;;14.40;81.50;;;;;;1062546;27;20266;-75
2021/01/03 01:36:06;;;;;;;;;;;14.40;81.70;;;;;;1064940;27;19915;-74
2021/01/03 01:36:37;;;;;;;;;;;14.40;81.70;;;;;;1058298;27;19903;-74
2021/01/03 01:37:08;;;;;;;;;;;14.40;81.70;;;;;;1060789;27;19942;-74
2021/01/03 01:37:39;;;;;;;;;;;14.30;81.70;;;;;;1057883;28;19990;-74
2021/01/03 01:38:10;;;;;;;;;;;14.40;81.90;;;;;;1058252;28;20234;-75
2021/01/03 01:38:41;;;;;;;;;;;14.30;81.80;;;;;;1065986;27;20328;-75
2021/01/03 01:39:12;;;;;;;;;;;14.40;81.60;;;;;;1065547;27;19907;-74
2021/01/03 01:39:43;;;;;;;;;;;14.40;81.70;;;;;;1064392;27;19998;-75
2021/01/03 01:40:17;;;;;;;;;;;14.30;81.70;;;;;;1062903;27;20256;-75
2021/01/03 01:40:48;;;;;;;;;;;14.40;81.80;;;;;;1060032;27;20045;-75
2021/01/03 01:41:19;;;;;;;;;;;14.40;81.80;;;;;;1057813;28;19914;-74
2021/01/03 01:41:50;;;;;;;;;;;14.40;81.80;;;;;;1057868;28;19946;-74
2021/01/03 01:42:21;;;;;;;;;;;14.40;81.80;;;;;;1057815;28;19990;-74
2021/01/03 01:42:53;;;;;;;;;;;14.40;81.80;;;;;;1064314;27;19903;-75
2021/01/03 01:43:24;;;;;;;;;;;14.30;81.70;;;;;;1063101;27;19999;-75
2021/01/03 01:43:55;;;;;;;;;;;14.30;81.70;;;;;;1063625;27;19967;-75
2021/01/03 01:44:26;;;;;;;;;;;14.30;81.90;;;;;;1062359;27;20247;-76
2021/01/03 01:44:57;;;;;;;;;;;14.30;81.70;;;;;;1063441;27;19911;-75
2021/01/03 01:45:31;;;;;;;;;;;14.30;81.50;;;;;;1060929;27;19908;-75
2021/01/03 01:46:04;;;;;;;;;;;14.30;81.60;;;;;;1056705;28;20002;-75
2021/01/03 01:46:50;;;;;;;;;;;14.30;81.70;;;;;;1057525;28;19915;-75
2021/01/03 01:47:29;;;;;;;;;;;14.30;81.80;;;;;;1057713;28;20107;-76
2021/01/03 01:48:02;;;;;;;;;;;14.30;81.80;;;;;;1060381;27;19943;-76
2021/01/03 01:48:38;;;;;;;;;;;14.30;81.70;;;;;;1066121;27;19903;-76
2021/01/03 01:49:11;;;;;;;;;;;14.30;81.90;;;;;;1066619;27;19906;-76
2021/01/03 01:49:43;;;;;;;;;;;14.20;81.80;;;;;;1061879;27;19914;-76
2021/01/03 01:50:19;;;;;;;;;;;14.20;81.90;;;;;;1057471;28;19908;-76
2021/01/03 01:50:53;;;;;;;;;;;14.20;81.90;;;;;;1057690;28;19911;-75
2021/01/03 01:51:36;;;;;;;;;;;14.20;81.80;;;;;;1059473;27;19914;-76
2021/01/03 01:52:09;;;;;;;;;;;14.20;81.90;;;;;;1062252;27;19904;-76
2021/01/03 01:52:45;;;;;;;;;;;14.20;82.00;;;;;;1061945;27;19908;-76
2021/01/03 01:53:22;;;;;;;;;;;14.20;82.20;;;;;;1061924;27;19907;-76
2021/01/03 01:53:53;;;;;;;;;;;14.20;82.20;;;;;;1058102;27;19968;-76
2021/01/03 01:54:28;;;;;;;;;;;14.20;82.20;;;;;;1061906;27;20328;-76
2021/01/03 01:55:04;;;;;;;;;;;14.20;82.20;;;;;;1063835;27;19911;-76
2021/01/03 01:55:38;;;;;;;;;;;14.20;82.00;;;;;;1066165;27;19913;-76
2021/01/03 01:56:22;;;;;;;;;;;14.20;81.70;;;;;;1066434;27;19918;-76
2021/01/03 01:57:05;;;;;;;;;;;14.20;81.90;;;;;;1057735;28;20320;-76
2021/01/03 01:57:40;;;;;;;;;;;14.20;81.80;;;;;;1057827;28;19904;-75
2021/01/03 01:58:11;;;;;;;;;;;14.20;81.80;;;;;;1057856;28;20246;-77
2021/01/03 01:58:54;;;;;;;;;;;14.20;81.90;;;;;;1058301;27;19904;-76
2021/01/03 01:59:45;;;;;;;;;;;14.20;81.90;;;;;;1062071;27;19934;-76
2021/01/03 02:00:22;;;;;;;;;;;14.20;81.80;;;;;;1044288;28;19912;-75
2021/01/03 02:00:57;;;;;;;;;;;14.20;81.90;;;;;;1057808;28;19949;-76
2021/01/03 02:01:47;;;;;;;;;;;14.20;81.90;;;;;;1064515;27;19938;-75
2021/01/03 02:02:20;;;;;;;;;;;14.30;82.10;;;;;;1062092;27;19942;-75
2021/01/03 02:03:00;;;;;;;;;;;14.30;81.80;;;;;;1062837;27;19904;-76
2021/01/03 02:03:31;;;;;;;;;;;14.20;81.80;;;;;;1063974;27;19907;-75
2021/01/03 02:04:10;;;;;;;;;;;14.20;82.00;;;;;;1063738;27;19915;-75
2021/01/03 02:04:44;;;;;;;;;;;14.20;82.10;;;;;;1064314;27;19930;-75
2021/01/03 02:05:18;;;;;;;;;;;14.20;82.20;;;;;;1062254;27;19914;-75
2021/01/03 02:06:09;;;;;;;;;;;14.20;82.20;;;;;;1063438;27;19911;-75
2021/01/03 02:06:43;;;;;;;;;;;14.20;82.20;;;;;;1038426;28;19940;-75
2021/01/03 02:07:29;;;;;;;;;;;14.20;82.20;;;;;;1035978;28;19914;-76
2021/01/03 02:08:03;;;;;;;;;;;14.30;82.20;;;;;;1055065;28;19947;-76
2021/01/03 02:08:47;;;;;;;;;;;14.30;82.20;;;;;;1060873;27;19917;-75
2021/01/03 02:09:24;;;;;;;;;;;14.30;82.20;;;;;;1058096;28;19904;-75
2021/01/03 02:10:14;;;;;;;;;;;14.30;82.20;;;;;;1055931;28;19922;-75
2021/01/03 02:10:46;;;;;;;;;;;14.30;82.10;;;;;;1054898;28;19950;-75
2021/01/03 02:11:20;;;;;;;;;;;14.30;82.00;;;;;;1059520;27;19983;-75
2021/01/03 02:12:05;;;;;;;;;;;14.30;82.00;;;;;;1062352;27;19911;-76
2021/01/03 02:12:38;;;;;;;;;;;14.30;82.00;;;;;;1063701;27;19911;-75
2021/01/03 02:13:21;;;;;;;;;;;14.20;82.00;;;;;;1062456;27;19956;-75
2021/01/03 02:13:54;;;;;;;;;;;14.30;82.20;;;;;;1062022;27;19964;-76
2021/01/03 02:14:25;;;;;;;;;;;14.30;82.30;;;;;;1066509;27;19911;-75
2021/01/03 02:14:56;;;;;;;;;;;14.30;82.30;;;;;;1065323;27;20284;-75
2021/01/03 02:15:28;;;;;;;;;;;14.30;82.20;;;;;;1062027;27;20360;-75
2021/01/03 02:16:07;;;;;;;;;;;14.30;82.20;;;;;;1061937;27;19957;-76
2021/01/03 02:16:39;;;;;;;;;;;14.30;82.00;;;;;;1059065;27;20066;-76
2021/01/03 02:17:10;;;;;;;;;;;14.30;81.90;;;;;;1055816;28;20178;-75
2021/01/03 02:17:43;;;;;;;;;;;14.30;81.90;;;;;;1052932;28;19923;-75
2021/01/03 02:18:15;;;;;;;;;;;14.30;81.90;;;;;;1056477;28;19914;-75
2021/01/03 02:18:47;;;;;;;;;;;14.30;82.00;;;;;;1057245;28;19907;-75
2021/01/03 02:19:20;;;;;;;;;;;14.30;82.70;;;;;;1062602;27;19956;-75
2021/01/03 02:19:52;;;;;;;;;;;14.30;82.10;;;;;;1061754;27;20241;-75
2021/01/03 02:20:25;;;;;;;;;;;14.30;82.10;;;;;;1057506;28;19904;-75
2021/01/03 02:21:06;;;;;;;;;;;14.30;82.20;;;;;;1056155;28;19904;-75
2021/01/03 02:21:37;;;;;;;;;;;14.30;82.20;;;;;;1055418;28;20349;-75
2021/01/03 02:22:08;;;;;;;;;;;14.30;82.30;;;;;;1059549;27;19986;-76
2021/01/03 02:22:41;;;;;;;;;;;14.30;82.40;;;;;;1062168;28;20321;-75
2021/01/03 02:23:12;;;;;;;;;;;14.30;82.40;;;;;;1057518;28;19903;-75
2021/01/03 02:24:01;;;;;;;;;;;14.20;82.40;;;;;;1060394;27;19914;-75
2021/01/03 02:24:41;;;;;;;;;;;14.30;82.50;;;;;;1057242;28;19908;-75
2021/01/03 02:25:13;;;;;;;;;;;14.30;82.60;;;;;;1059078;27;19935;-75
2021/01/03 02:25:44;;;;;;;;;;;14.30;82.60;;;;;;1057983;27;19904;-75
2021/01/03 02:26:16;;;;;;;;;;;14.30;82.40;;;;;;1061630;27;19903;-75
2021/01/03 02:26:50;;;;;;;;;;;14.30;82.20;;;;;;1061745;27;19915;-75
2021/01/03 02:27:32;;;;;;;;;;;14.20;82.20;;;;;;1061944;27;19904;-76
2021/01/03 02:28:18;;;;;;;;;;;14.20;82.40;;;;;;1064391;27;19907;-75
2021/01/03 02:28:50;;;;;;;;;;;14.20;82.40;;;;;;1062168;27;20321;-76
2021/01/03 02:29:22;;;;;;;;;;;14.20;82.50;;;;;;1062197;27;19903;-75
2021/01/03 02:29:55;;;;;;;;;;;14.20;82.60;;;;;;1063990;27;20014;-75
2021/01/03 02:30:27;;;;;;;;;;;14.20;82.60;;;;;;1057542;28;20234;-76
2021/01/03 02:30:59;;;;;;;;;;;14.20;82.60;;;;;;1057593;28;19911;-75
2021/01/03 02:31:34;;;;;;;;;;;14.20;82.60;;;;;;1061268;27;20014;-75
2021/01/03 02:32:06;;;;;;;;;;;14.20;82.70;;;;;;1062980;27;19904;-76
2021/01/03 02:32:42;;;;;;;;;;;14.20;82.20;;;;;;1066454;27;19998;-76
2021/01/03 02:33:26;;;;;;;;;;;14.20;82.30;;;;;;1066351;27;19907;-75
2021/01/03 02:33:58;;;;;;;;;;;14.20;82.40;;;;;;1062035;27;19990;-76
2021/01/03 02:34:30;;;;;;;;;;;14.10;82.10;;;;;;1062374;27;19903;-76
2021/01/03 02:35:04;;;;;;;;;;;14.10;82.20;;;;;;1057467;28;20326;-75
2021/01/03 02:35:36;;;;;;;;;;;14.10;82.50;;;;;;1057778;28;19966;-75
2021/01/03 02:36:11;;;;;;;;;;;14.10;82.60;;;;;;1061661;27;19907;-76
2021/01/03 02:36:45;;;;;;;;;;;14.10;82.60;;;;;;1058534;27;20363;-76
2021/01/03 02:37:24;;;;;;;;;;;14.10;82.60;;;;;;1065804;27;19913;-75
2021/01/03 02:37:56;;;;;;;;;;;14.10;82.70;;;;;;1063783;27;19903;-76
2021/01/03 02:38:28;;;;;;;;;;;14.20;82.70;;;;;;1060956;27;20377;-75
2021/01/03 02:39:08;;;;;;;;;;;14.20;82.70;;;;;;1061036;27;19907;-75
2021/01/03 02:39:42;;;;;;;;;;;14.20;82.70;;;;;;1061726;27;19908;-75
2021/01/03 02:40:19;;;;;;;;;;;14.20;82.80;;;;;;1055559;28;19973;-75
2021/01/03 02:40:50;;;;;;;;;;;14.20;82.80;;;;;;1055736;28;19912;-75
2021/01/03 02:41:22;;;;;;;;;;;14.20;82.80;;;;;;1054022;28;20352;-75
2021/01/03 02:41:54;;;;;;;;;;;14.20;82.80;;;;;;1053310;28;20253;-75
2021/01/03 02:42:30;;;;;;;;;;;14.20;82.90;;;;;;1056650;27;20325;-75
2021/01/03 02:43:01;;;;;;;;;;;14.20;82.90;;;;;;1061208;27;19947;-75
2021/01/03 02:43:32;;;;;;;;;;;14.20;82.90;;;;;;1066271;27;19907;-75
2021/01/03 02:44:03;;;;;;;;;;;14.20;82.90;;;;;;1066338;27;19914;-75
2021/01/03 02:44:34;;;;;;;;;;;14.20;82.90;;;;;;1061750;27;19907;-75
2021/01/03 02:45:07;;;;;;;;;;;14.20;82.80;;;;;;1056976;28;19955;-75
2021/01/03 02:45:38;;;;;;;;;;;14.20;82.70;;;;;;1055295;28;19947;-75
2021/01/03 02:46:10;;;;;;;;;;;14.20;82.60;;;;;;1058182;28;19931;-76
2021/01/03 02:46:41;;;;;;;;;;;14.30;82.60;;;;;;1061830;27;19950;-75
2021/01/03 02:47:12;;;;;;;;;;;14.30;82.50;;;;;;1064424;27;19915;-75
2021/01/03 02:47:43;;;;;;;;;;;14.20;82.40;;;;;;1057929;28;20068;-75
2021/01/03 02:48:18;;;;;;;;;;;14.30;82.50;;;;;;1061612;27;19908;-74
2021/01/03 02:48:49;;;;;;;;;;;14.30;82.40;;;;;;1057455;28;19939;-75
2021/01/03 02:49:21;;;;;;;;;;;14.30;82.00;;;;;;1061731;28;19914;-75
2021/01/03 02:49:52;;;;;;;;;;;14.20;82.10;;;;;;1062554;27;19903;-75
2021/01/03 02:50:24;;;;;;;;;;;14.20;82.20;;;;;;1066170;27;19911;-75
2021/01/03 02:50:55;;;;;;;;;;;14.20;82.30;;;;;;1061310;28;20298;-76
2021/01/03 02:51:32;;;;;;;;;;;14.20;82.40;;;;;;1061010;28;19914;-75
2021/01/03 02:52:05;;;;;;;;;;;14.20;82.40;;;;;;1061881;28;19911;-75
2021/01/03 02:52:38;;;;;;;;;;;14.20;82.50;;;;;;1059131;28;20244;-75
2021/01/03 02:53:09;;;;;;;;;;;14.30;82.60;;;;;;1065350;27;20309;-75
2021/01/03 02:53:40;;;;;;;;;;;14.20;82.40;;;;;;1062105;27;19976;-75
2021/01/03 02:54:11;;;;;;;;;;;14.30;82.30;;;;;;1063219;27;19915;-75
2021/01/03 02:54:42;;;;;;;;;;;14.30;82.20;;;;;;1058885;28;19948;-75
2021/01/03 02:55:14;;;;;;;;;;;14.20;82.20;;;;;;1057977;28;19968;-75
2021/01/03 02:55:45;;;;;;;;;;;14.20;82.20;;;;;;1062385;27;19942;-75
2021/01/03 02:56:16;;;;;;;;;;;14.20;82.20;;;;;;1060349;27;19904;-75
2021/01/03 02:56:49;;;;;;;;;;;14.20;82.30;;;;;;1059627;27;19908;-75
2021/01/03 02:57:20;;;;;;;;;;;14.20;82.30;;;;;;1063169;27;19904;-75
2021/01/03 02:57:51;;;;;;;;;;;14.20;82.30;;;;;;1063683;27;19903;-76
2021/01/03 02:58:22;;;;;;;;;;;14.20;83.00;;;;;;1067816;27;19921;-76
2021/01/03 02:58:53;;;;;;;;;;;14.30;82.40;;;;;;1068531;27;19911;-75
2021/01/03 02:59:24;;;;;;;;;;;14.30;82.20;;;;;;1068039;27;19907;-75
2021/01/03 02:59:55;;;;;;;;;;;14.30;82.10;;;;;;1067187;27;19937;-76
2021/01/03 03:00:36;;;;;;;;;;;14.30;82.10;;;;;;1063717;27;19919;-76
2021/01/03 03:01:07;;;;;;;;;;;14.30;82.10;;;;;;1063699;27;19907;-76
2021/01/03 03:01:38;;;;;;;;;;;14.30;81.90;;;;;;1065878;27;19911;-75
2021/01/03 03:02:09;;;;;;;;;;;14.30;81.90;;;;;;1067676;27;20281;-76
2021/01/03 03:02:40;;;;;;;;;;;14.30;82.00;;;;;;1063091;27;19915;-76
2021/01/03 03:03:11;;;;;;;;;;;14.30;81.90;;;;;;1063408;27;19907;-76
2021/01/03 03:03:42;;;;;;;;;;;14.30;81.90;;;;;;1063129;27;19944;-76
2021/01/03 03:04:13;;;;;;;;;;;14.30;81.90;;;;;;1063690;27;19915;-76
2021/01/03 03:04:45;;;;;;;;;;;14.20;81.90;;;;;;1067811;27;20259;-76
2021/01/03 03:05:16;;;;;;;;;;;14.20;82.00;;;;;;1066305;27;19994;-76
2021/01/03 03:05:47;;;;;;;;;;;14.20;82.00;;;;;;1067696;27;19910;-75
2021/01/03 03:06:18;;;;;;;;;;;14.20;82.10;;;;;;1067526;27;19903;-75
2021/01/03 03:06:49;;;;;;;;;;;14.20;82.10;;;;;;1062674;27;19903;-75
2021/01/03 03:07:20;;;;;;;;;;;14.20;82.20;;;;;;1060796;27;20024;-74
2021/01/03 03:07:52;;;;;;;;;;;14.20;82.20;;;;;;1059351;27;20256;-76
2021/01/03 03:08:24;;;;;;;;;;;14.20;82.20;;;;;;1060382;27;19918;-76
2021/01/03 03:08:55;;;;;;;;;;;14.20;82.20;;;;;;1065243;27;19907;-75
2021/01/03 03:09:26;;;;;;;;;;;14.10;82.20;;;;;;1066197;27;20388;-75
2021/01/03 03:09:57;;;;;;;;;;;14.10;82.20;;;;;;1059659;27;19915;-75